sensor_id;sensor_type;location;lat;lon;timestamp;P1;durP1;ratioP1;P2;durP2;ratioP2
80536;SDS011;69867;47.074;15.404;2023-07-31T00:00:22;3.08;;;1.23;;
80536;SDS011;69867;47.074;15.404;2023-07-31T00:02:47;4.53;;;1.58;;
80536;SDS011;69867;47.074;15.404;2023-07-31T00:05:12;3.75;;;1.55;;
80536;SDS011;69867;47.074;15.404;2023-07-31T00:07:38;4.57;;;1.50;;
80536;SDS011;69867;47.074;15.404;2023-07-31T00:10:03;4.60;;;1.55;;
80536;SDS011;69867;47.074;15.404;2023-07-31T00:12:29;3.95;;;1.60;;
80536;SDS011;69867;47.074;15.404;2023-07-31T00:14:54;3.45;;;1.20;;
80536;SDS011;69867;47.074;15.404;2023-07-31T00:17:19;3.22;;;1.38;;
80536;SDS011;69867;47.074;15.404;2023-07-31T00:19:45;3.22;;;1.40;;
80536;SDS011;69867;47.074;15.404;2023-07-31T00:22:10;4.07;;;1.30;;
80536;SDS011;69867;47.074;15.404;2023-07-31T00:24:35;3.95;;;1.35;;
80536;SDS011;69867;47.074;15.404;2023-07-31T00:27:01;3.28;;;1.35;;
80536;SDS011;69867;47.074;15.404;2023-07-31T00:29:26;3.85;;;1.25;;
80536;SDS011;69867;47.074;15.404;2023-07-31T00:31:51;4.00;;;1.10;;
80536;SDS011;69867;47.074;15.404;2023-07-31T00:34:16;2.78;;;1.17;;
80536;SDS011;69867;47.074;15.404;2023-07-31T00:36:42;3.92;;;1.30;;
80536;SDS011;69867;47.074;15.404;2023-07-31T00:39:07;3.33;;;1.20;;
80536;SDS011;69867;47.074;15.404;2023-07-31T00:41:32;3.38;;;1.40;;
80536;SDS011;69867;47.074;15.404;2023-07-31T00:43:58;4.30;;;1.50;;
80536;SDS011;69867;47.074;15.404;2023-07-31T00:46:23;4.05;;;1.45;;
80536;SDS011;69867;47.074;15.404;2023-07-31T00:48:49;3.25;;;1.30;;
80536;SDS011;69867;47.074;15.404;2023-07-31T00:51:14;4.10;;;1.30;;
80536;SDS011;69867;47.074;15.404;2023-07-31T00:53:40;4.18;;;1.08;;
80536;SDS011;69867;47.074;15.404;2023-07-31T00:56:06;3.80;;;1.35;;
80536;SDS011;69867;47.074;15.404;2023-07-31T00:58:31;3.58;;;1.20;;
80536;SDS011;69867;47.074;15.404;2023-07-31T01:00:57;3.95;;;1.40;;
80536;SDS011;69867;47.074;15.404;2023-07-31T01:03:22;3.88;;;1.30;;
80536;SDS011;69867;47.074;15.404;2023-07-31T01:08:40;4.57;;;1.73;;
80536;SDS011;69867;47.074;15.404;2023-07-31T01:12:09;3.83;;;1.38;;
80536;SDS011;69867;47.074;15.404;2023-07-31T01:14:21;3.80;;;1.58;;
80536;SDS011;69867;47.074;15.404;2023-07-31T01:16:46;3.80;;;1.27;;
80536;SDS011;69867;47.074;15.404;2023-07-31T01:19:11;8.57;;;1.88;;
80536;SDS011;69867;47.074;15.404;2023-07-31T01:27:14;3.47;;;1.55;;
80536;SDS011;69867;47.074;15.404;2023-07-31T01:32:30;3.95;;;1.17;;
80536;SDS011;69867;47.074;15.404;2023-07-31T01:34:57;3.03;;;1.50;;
80536;SDS011;69867;47.074;15.404;2023-07-31T01:37:30;3.92;;;1.42;;
80536;SDS011;69867;47.074;15.404;2023-07-31T01:39:55;4.75;;;1.92;;
80536;SDS011;69867;47.074;15.404;2023-07-31T01:42:20;3.55;;;1.63;;
80536;SDS011;69867;47.074;15.404;2023-07-31T01:44:46;4.28;;;1.60;;
80536;SDS011;69867;47.074;15.404;2023-07-31T01:47:11;3.90;;;1.30;;
80536;SDS011;69867;47.074;15.404;2023-07-31T01:49:36;3.65;;;1.27;;
80536;SDS011;69867;47.074;15.404;2023-07-31T01:52:02;3.45;;;1.40;;
80536;SDS011;69867;47.074;15.404;2023-07-31T01:54:27;3.50;;;1.60;;
80536;SDS011;69867;47.074;15.404;2023-07-31T01:56:53;5.40;;;1.77;;
80536;SDS011;69867;47.074;15.404;2023-07-31T01:59:18;5.03;;;1.67;;
80536;SDS011;69867;47.074;15.404;2023-07-31T02:01:43;3.50;;;1.20;;
80536;SDS011;69867;47.074;15.404;2023-07-31T02:04:09;3.60;;;1.40;;
80536;SDS011;69867;47.074;15.404;2023-07-31T02:06:34;5.55;;;1.50;;
80536;SDS011;69867;47.074;15.404;2023-07-31T02:08:59;2.75;;;1.20;;
80536;SDS011;69867;47.074;15.404;2023-07-31T02:11:25;6.93;;;1.58;;
80536;SDS011;69867;47.074;15.404;2023-07-31T02:13:50;3.95;;;1.52;;
80536;SDS011;69867;47.074;15.404;2023-07-31T02:16:15;4.05;;;1.25;;
80536;SDS011;69867;47.074;15.404;2023-07-31T02:18:41;3.60;;;1.33;;
80536;SDS011;69867;47.074;15.404;2023-07-31T02:21:06;4.72;;;1.70;;
80536;SDS011;69867;47.074;15.404;2023-07-31T02:23:31;4.45;;;1.70;;
80536;SDS011;69867;47.074;15.404;2023-07-31T02:25:57;3.05;;;1.10;;
80536;SDS011;69867;47.074;15.404;2023-07-31T02:28:22;4.70;;;1.90;;
80536;SDS011;69867;47.074;15.404;2023-07-31T02:30:47;3.40;;;1.27;;
80536;SDS011;69867;47.074;15.404;2023-07-31T02:33:15;3.95;;;1.27;;
80536;SDS011;69867;47.074;15.404;2023-07-31T02:35:40;5.05;;;1.55;;
80536;SDS011;69867;47.074;15.404;2023-07-31T02:38:05;4.53;;;1.67;;
80536;SDS011;69867;47.074;15.404;2023-07-31T02:40:31;4.78;;;1.60;;
80536;SDS011;69867;47.074;15.404;2023-07-31T02:42:56;3.78;;;1.75;;
80536;SDS011;69867;47.074;15.404;2023-07-31T02:45:21;4.22;;;1.27;;
80536;SDS011;69867;47.074;15.404;2023-07-31T02:47:47;3.63;;;1.50;;
80536;SDS011;69867;47.074;15.404;2023-07-31T02:50:12;3.38;;;1.30;;
80536;SDS011;69867;47.074;15.404;2023-07-31T02:52:37;3.97;;;1.52;;
80536;SDS011;69867;47.074;15.404;2023-07-31T02:55:03;4.38;;;1.40;;
80536;SDS011;69867;47.074;15.404;2023-07-31T02:57:28;4.95;;;2.00;;
80536;SDS011;69867;47.074;15.404;2023-07-31T02:59:54;4.93;;;1.80;;
80536;SDS011;69867;47.074;15.404;2023-07-31T03:02:19;3.60;;;1.42;;
80536;SDS011;69867;47.074;15.404;2023-07-31T03:04:44;3.22;;;1.55;;
80536;SDS011;69867;47.074;15.404;2023-07-31T03:07:10;3.42;;;1.67;;
80536;SDS011;69867;47.074;15.404;2023-07-31T03:09:35;5.93;;;1.80;;
80536;SDS011;69867;47.074;15.404;2023-07-31T03:12:00;4.40;;;1.50;;
80536;SDS011;69867;47.074;15.404;2023-07-31T03:14:26;5.32;;;1.70;;
80536;SDS011;69867;47.074;15.404;2023-07-31T03:16:51;5.13;;;1.65;;
80536;SDS011;69867;47.074;15.404;2023-07-31T03:19:16;6.05;;;1.88;;
80536;SDS011;69867;47.074;15.404;2023-07-31T03:21:42;4.60;;;1.58;;
80536;SDS011;69867;47.074;15.404;2023-07-31T03:24:07;5.30;;;1.70;;
80536;SDS011;69867;47.074;15.404;2023-07-31T03:26:32;4.47;;;1.42;;
80536;SDS011;69867;47.074;15.404;2023-07-31T03:28:58;4.28;;;1.73;;
80536;SDS011;69867;47.074;15.404;2023-07-31T03:31:23;4.38;;;1.30;;
80536;SDS011;69867;47.074;15.404;2023-07-31T03:33:48;4.20;;;1.30;;
80536;SDS011;69867;47.074;15.404;2023-07-31T03:36:14;3.35;;;1.52;;
80536;SDS011;69867;47.074;15.404;2023-07-31T03:38:40;3.85;;;1.50;;
80536;SDS011;69867;47.074;15.404;2023-07-31T03:41:05;4.95;;;1.67;;
80536;SDS011;69867;47.074;15.404;2023-07-31T03:43:30;4.07;;;1.30;;
80536;SDS011;69867;47.074;15.404;2023-07-31T03:45:55;4.22;;;1.60;;
80536;SDS011;69867;47.074;15.404;2023-07-31T03:48:21;4.40;;;1.60;;
80536;SDS011;69867;47.074;15.404;2023-07-31T03:50:46;4.45;;;1.58;;
80536;SDS011;69867;47.074;15.404;2023-07-31T03:53:12;4.38;;;1.70;;
80536;SDS011;69867;47.074;15.404;2023-07-31T03:55:37;4.20;;;1.80;;
80536;SDS011;69867;47.074;15.404;2023-07-31T03:58:02;3.45;;;1.40;;
80536;SDS011;69867;47.074;15.404;2023-07-31T04:00:27;3.42;;;1.52;;
80536;SDS011;69867;47.074;15.404;2023-07-31T04:02:53;4.50;;;1.70;;
80536;SDS011;69867;47.074;15.404;2023-07-31T04:05:18;5.13;;;1.60;;
80536;SDS011;69867;47.074;15.404;2023-07-31T04:07:44;3.50;;;1.50;;
80536;SDS011;69867;47.074;15.404;2023-07-31T04:10:09;3.38;;;1.25;;
80536;SDS011;69867;47.074;15.404;2023-07-31T04:12:34;4.55;;;2.00;;
80536;SDS011;69867;47.074;15.404;2023-07-31T04:15:00;4.53;;;1.48;;
80536;SDS011;69867;47.074;15.404;2023-07-31T04:17:25;4.07;;;1.77;;
80536;SDS011;69867;47.074;15.404;2023-07-31T04:19:50;5.75;;;1.50;;
80536;SDS011;69867;47.074;15.404;2023-07-31T04:22:16;3.92;;;1.77;;
80536;SDS011;69867;47.074;15.404;2023-07-31T04:24:41;3.42;;;1.27;;
80536;SDS011;69867;47.074;15.404;2023-07-31T04:27:06;3.67;;;1.55;;
80536;SDS011;69867;47.074;15.404;2023-07-31T04:29:32;3.88;;;1.75;;
80536;SDS011;69867;47.074;15.404;2023-07-31T04:31:57;3.15;;;1.80;;
80536;SDS011;69867;47.074;15.404;2023-07-31T04:34:22;4.57;;;1.60;;
80536;SDS011;69867;47.074;15.404;2023-07-31T04:36:48;4.82;;;1.85;;
80536;SDS011;69867;47.074;15.404;2023-07-31T04:39:13;5.85;;;1.85;;
80536;SDS011;69867;47.074;15.404;2023-07-31T04:41:38;4.13;;;1.98;;
80536;SDS011;69867;47.074;15.404;2023-07-31T04:44:03;5.88;;;1.85;;
80536;SDS011;69867;47.074;15.404;2023-07-31T04:46:29;5.05;;;1.95;;
80536;SDS011;69867;47.074;15.404;2023-07-31T04:48:55;6.75;;;2.15;;
80536;SDS011;69867;47.074;15.404;2023-07-31T04:51:20;4.63;;;1.70;;
80536;SDS011;69867;47.074;15.404;2023-07-31T04:53:45;3.95;;;1.90;;
80536;SDS011;69867;47.074;15.404;2023-07-31T04:56:11;4.63;;;1.73;;
80536;SDS011;69867;47.074;15.404;2023-07-31T04:58:36;5.45;;;1.98;;
80536;SDS011;69867;47.074;15.404;2023-07-31T05:01:01;3.65;;;1.58;;
80536;SDS011;69867;47.074;15.404;2023-07-31T05:03:26;4.40;;;1.70;;
80536;SDS011;69867;47.074;15.404;2023-07-31T05:05:52;5.25;;;1.90;;
80536;SDS011;69867;47.074;15.404;2023-07-31T05:08:17;3.90;;;1.52;;
80536;SDS011;69867;47.074;15.404;2023-07-31T05:10:43;5.55;;;1.58;;
80536;SDS011;69867;47.074;15.404;2023-07-31T05:13:08;4.97;;;1.75;;
80536;SDS011;69867;47.074;15.404;2023-07-31T05:15:34;5.35;;;1.98;;
80536;SDS011;69867;47.074;15.404;2023-07-31T05:17:59;6.93;;;1.63;;
80536;SDS011;69867;47.074;15.404;2023-07-31T05:20:24;3.33;;;1.42;;
80536;SDS011;69867;47.074;15.404;2023-07-31T05:22:50;7.00;;;1.83;;
80536;SDS011;69867;47.074;15.404;2023-07-31T05:25:16;4.68;;;1.70;;
80536;SDS011;69867;47.074;15.404;2023-07-31T05:27:41;3.40;;;1.70;;
80536;SDS011;69867;47.074;15.404;2023-07-31T05:30:07;7.25;;;1.85;;
80536;SDS011;69867;47.074;15.404;2023-07-31T05:32:32;4.45;;;1.70;;
80536;SDS011;69867;47.074;15.404;2023-07-31T05:34:58;4.40;;;1.60;;
80536;SDS011;69867;47.074;15.404;2023-07-31T05:37:23;7.38;;;1.70;;
80536;SDS011;69867;47.074;15.404;2023-07-31T05:39:49;8.80;;;2.13;;
80536;SDS011;69867;47.074;15.404;2023-07-31T05:42:14;5.47;;;1.80;;
80536;SDS011;69867;47.074;15.404;2023-07-31T05:44:39;5.20;;;1.80;;
80536;SDS011;69867;47.074;15.404;2023-07-31T05:47:05;6.13;;;1.67;;
80536;SDS011;69867;47.074;15.404;2023-07-31T05:49:30;4.15;;;1.75;;
80536;SDS011;69867;47.074;15.404;2023-07-31T05:51:56;5.82;;;1.85;;
80536;SDS011;69867;47.074;15.404;2023-07-31T05:54:21;5.05;;;1.67;;
80536;SDS011;69867;47.074;15.404;2023-07-31T05:56:47;4.15;;;1.77;;
80536;SDS011;69867;47.074;15.404;2023-07-31T05:59:12;4.93;;;1.80;;
80536;SDS011;69867;47.074;15.404;2023-07-31T06:01:38;4.60;;;2.03;;
80536;SDS011;69867;47.074;15.404;2023-07-31T06:04:03;4.22;;;1.80;;
80536;SDS011;69867;47.074;15.404;2023-07-31T06:06:29;4.05;;;1.83;;
80536;SDS011;69867;47.074;15.404;2023-07-31T06:08:54;5.50;;;2.10;;
80536;SDS011;69867;47.074;15.404;2023-07-31T06:11:20;3.78;;;2.28;;
80536;SDS011;69867;47.074;15.404;2023-07-31T06:13:45;6.70;;;2.50;;
80536;SDS011;69867;47.074;15.404;2023-07-31T06:16:11;4.78;;;2.20;;
80536;SDS011;69867;47.074;15.404;2023-07-31T06:18:36;5.60;;;2.75;;
80536;SDS011;69867;47.074;15.404;2023-07-31T06:21:01;4.43;;;2.55;;
80536;SDS011;69867;47.074;15.404;2023-07-31T06:23:27;4.05;;;1.98;;
80536;SDS011;69867;47.074;15.404;2023-07-31T06:25:52;4.68;;;2.50;;
80536;SDS011;69867;47.074;15.404;2023-07-31T06:28:17;5.25;;;2.38;;
80536;SDS011;69867;47.074;15.404;2023-07-31T06:30:43;4.85;;;2.15;;
80536;SDS011;69867;47.074;15.404;2023-07-31T06:33:08;5.50;;;2.08;;
80536;SDS011;69867;47.074;15.404;2023-07-31T06:35:34;4.30;;;2.17;;
80536;SDS011;69867;47.074;15.404;2023-07-31T06:37:59;6.10;;;1.95;;
80536;SDS011;69867;47.074;15.404;2023-07-31T06:40:24;4.40;;;2.17;;
80536;SDS011;69867;47.074;15.404;2023-07-31T06:42:50;5.63;;;2.35;;
80536;SDS011;69867;47.074;15.404;2023-07-31T06:45:15;7.05;;;2.72;;
80536;SDS011;69867;47.074;15.404;2023-07-31T06:47:40;4.28;;;2.22;;
80536;SDS011;69867;47.074;15.404;2023-07-31T06:50:06;5.40;;;2.03;;
80536;SDS011;69867;47.074;15.404;2023-07-31T06:52:32;5.22;;;2.78;;
80536;SDS011;69867;47.074;15.404;2023-07-31T06:55:01;4.72;;;2.38;;
80536;SDS011;69867;47.074;15.404;2023-07-31T06:57:43;4.32;;;2.22;;
80536;SDS011;69867;47.074;15.404;2023-07-31T07:00:08;5.20;;;2.47;;
80536;SDS011;69867;47.074;15.404;2023-07-31T07:02:34;6.35;;;2.40;;
80536;SDS011;69867;47.074;15.404;2023-07-31T07:04:59;6.28;;;2.53;;
80536;SDS011;69867;47.074;15.404;2023-07-31T07:07:24;4.57;;;2.28;;
80536;SDS011;69867;47.074;15.404;2023-07-31T07:09:50;5.25;;;2.58;;
80536;SDS011;69867;47.074;15.404;2023-07-31T07:12:15;5.10;;;2.72;;
80536;SDS011;69867;47.074;15.404;2023-07-31T07:14:41;6.53;;;3.58;;
80536;SDS011;69867;47.074;15.404;2023-07-31T07:17:06;8.60;;;3.15;;
80536;SDS011;69867;47.074;15.404;2023-07-31T07:19:31;6.63;;;3.05;;
80536;SDS011;69867;47.074;15.404;2023-07-31T07:21:56;7.57;;;3.58;;
80536;SDS011;69867;47.074;15.404;2023-07-31T07:24:22;7.80;;;3.40;;
80536;SDS011;69867;47.074;15.404;2023-07-31T07:26:47;6.07;;;3.10;;
80536;SDS011;69867;47.074;15.404;2023-07-31T07:29:12;5.55;;;2.35;;
80536;SDS011;69867;47.074;15.404;2023-07-31T07:31:38;4.38;;;1.98;;
80536;SDS011;69867;47.074;15.404;2023-07-31T07:34:03;5.18;;;2.08;;
80536;SDS011;69867;47.074;15.404;2023-07-31T07:36:28;4.10;;;2.00;;
80536;SDS011;69867;47.074;15.404;2023-07-31T07:38:54;4.65;;;2.40;;
80536;SDS011;69867;47.074;15.404;2023-07-31T07:41:19;3.15;;;1.75;;
80536;SDS011;69867;47.074;15.404;2023-07-31T07:43:44;5.32;;;2.72;;
80536;SDS011;69867;47.074;15.404;2023-07-31T07:46:09;5.65;;;2.72;;
80536;SDS011;69867;47.074;15.404;2023-07-31T07:48:35;4.30;;;1.80;;
80536;SDS011;69867;47.074;15.404;2023-07-31T07:51:00;4.00;;;2.28;;
80536;SDS011;69867;47.074;15.404;2023-07-31T07:53:26;5.63;;;2.35;;
80536;SDS011;69867;47.074;15.404;2023-07-31T07:55:51;5.43;;;2.25;;
80536;SDS011;69867;47.074;15.404;2023-07-31T07:58:16;4.15;;;2.08;;
80536;SDS011;69867;47.074;15.404;2023-07-31T08:00:46;8.30;;;2.75;;
80536;SDS011;69867;47.074;15.404;2023-07-31T08:03:13;4.57;;;2.35;;
80536;SDS011;69867;47.074;15.404;2023-07-31T08:05:38;6.18;;;2.53;;
80536;SDS011;69867;47.074;15.404;2023-07-31T08:08:04;7.28;;;2.58;;
80536;SDS011;69867;47.074;15.404;2023-07-31T08:10:29;5.05;;;1.98;;
80536;SDS011;69867;47.074;15.404;2023-07-31T08:12:54;3.85;;;1.92;;
80536;SDS011;69867;47.074;15.404;2023-07-31T08:15:20;6.05;;;1.85;;
80536;SDS011;69867;47.074;15.404;2023-07-31T08:17:45;4.97;;;2.53;;
80536;SDS011;69867;47.074;15.404;2023-07-31T08:20:11;4.35;;;2.13;;
80536;SDS011;69867;47.074;15.404;2023-07-31T08:22:36;5.13;;;2.00;;
80536;SDS011;69867;47.074;15.404;2023-07-31T08:25:02;3.50;;;1.77;;
80536;SDS011;69867;47.074;15.404;2023-07-31T08:27:27;4.22;;;1.85;;
80536;SDS011;69867;47.074;15.404;2023-07-31T08:29:52;2.78;;;1.42;;
80536;SDS011;69867;47.074;15.404;2023-07-31T08:32:18;3.58;;;1.50;;
80536;SDS011;69867;47.074;15.404;2023-07-31T08:34:43;4.03;;;1.95;;
80536;SDS011;69867;47.074;15.404;2023-07-31T08:37:08;5.18;;;1.60;;
80536;SDS011;69867;47.074;15.404;2023-07-31T08:39:33;4.15;;;1.70;;
80536;SDS011;69867;47.074;15.404;2023-07-31T08:41:59;3.83;;;2.05;;
80536;SDS011;69867;47.074;15.404;2023-07-31T08:44:24;4.75;;;1.95;;
80536;SDS011;69867;47.074;15.404;2023-07-31T08:46:49;4.22;;;1.95;;
80536;SDS011;69867;47.074;15.404;2023-07-31T08:49:15;3.00;;;1.75;;
80536;SDS011;69867;47.074;15.404;2023-07-31T08:51:42;6.38;;;2.53;;
80536;SDS011;69867;47.074;15.404;2023-07-31T08:54:09;4.88;;;2.83;;
80536;SDS011;69867;47.074;15.404;2023-07-31T08:56:35;5.50;;;2.08;;
80536;SDS011;69867;47.074;15.404;2023-07-31T08:59:01;4.05;;;1.75;;
80536;SDS011;69867;47.074;15.404;2023-07-31T09:01:29;3.67;;;1.75;;
80536;SDS011;69867;47.074;15.404;2023-07-31T09:03:55;3.55;;;1.65;;
80536;SDS011;69867;47.074;15.404;2023-07-31T09:06:21;4.13;;;1.98;;
80536;SDS011;69867;47.074;15.404;2023-07-31T09:08:49;4.38;;;2.15;;
80536;SDS011;69867;47.074;15.404;2023-07-31T09:11:14;2.80;;;1.45;;
80536;SDS011;69867;47.074;15.404;2023-07-31T09:13:40;3.10;;;1.48;;
80536;SDS011;69867;47.074;15.404;2023-07-31T09:16:07;3.38;;;1.50;;
80536;SDS011;69867;47.074;15.404;2023-07-31T09:18:41;3.03;;;1.40;;
80536;SDS011;69867;47.074;15.404;2023-07-31T09:21:18;4.90;;;1.73;;
80536;SDS011;69867;47.074;15.404;2023-07-31T09:23:45;3.75;;;1.60;;
80536;SDS011;69867;47.074;15.404;2023-07-31T09:26:11;6.68;;;1.83;;
80536;SDS011;69867;47.074;15.404;2023-07-31T09:28:53;4.50;;;1.85;;
80536;SDS011;69867;47.074;15.404;2023-07-31T09:31:21;4.30;;;1.40;;
80536;SDS011;69867;47.074;15.404;2023-07-31T09:33:57;8.57;;;1.60;;
80536;SDS011;69867;47.074;15.404;2023-07-31T09:36:22;3.50;;;1.55;;
80536;SDS011;69867;47.074;15.404;2023-07-31T09:38:47;3.97;;;1.60;;
80536;SDS011;69867;47.074;15.404;2023-07-31T09:41:13;3.60;;;1.65;;
80536;SDS011;69867;47.074;15.404;2023-07-31T09:43:38;3.53;;;1.40;;
80536;SDS011;69867;47.074;15.404;2023-07-31T09:46:03;4.63;;;1.60;;
80536;SDS011;69867;47.074;15.404;2023-07-31T09:48:38;3.10;;;1.30;;
80536;SDS011;69867;47.074;15.404;2023-07-31T09:51:04;3.45;;;1.60;;
80536;SDS011;69867;47.074;15.404;2023-07-31T09:53:29;4.15;;;1.77;;
80536;SDS011;69867;47.074;15.404;2023-07-31T09:55:55;2.70;;;1.45;;
80536;SDS011;69867;47.074;15.404;2023-07-31T09:58:23;5.93;;;1.60;;
80536;SDS011;69867;47.074;15.404;2023-07-31T10:00:49;5.47;;;1.25;;
80536;SDS011;69867;47.074;15.404;2023-07-31T10:03:15;3.33;;;1.42;;
80536;SDS011;69867;47.074;15.404;2023-07-31T10:05:45;4.10;;;1.73;;
80536;SDS011;69867;47.074;15.404;2023-07-31T10:08:15;3.70;;;1.63;;
80536;SDS011;69867;47.074;15.404;2023-07-31T10:10:43;3.20;;;1.73;;
80536;SDS011;69867;47.074;15.404;2023-07-31T10:13:09;4.78;;;1.65;;
80536;SDS011;69867;47.074;15.404;2023-07-31T10:15:35;3.55;;;1.65;;
80536;SDS011;69867;47.074;15.404;2023-07-31T10:18:01;5.45;;;1.67;;
80536;SDS011;69867;47.074;15.404;2023-07-31T10:20:27;3.90;;;1.70;;
80536;SDS011;69867;47.074;15.404;2023-07-31T10:22:56;4.20;;;1.60;;
80536;SDS011;69867;47.074;15.404;2023-07-31T10:25:22;3.78;;;1.52;;
80536;SDS011;69867;47.074;15.404;2023-07-31T10:27:49;3.83;;;1.77;;
80536;SDS011;69867;47.074;15.404;2023-07-31T10:30:17;4.68;;;1.90;;
80536;SDS011;69867;47.074;15.404;2023-07-31T10:32:45;3.55;;;1.55;;
80536;SDS011;69867;47.074;15.404;2023-07-31T10:35:12;3.70;;;2.00;;
80536;SDS011;69867;47.074;15.404;2023-07-31T10:37:41;2.92;;;1.63;;
80536;SDS011;69867;47.074;15.404;2023-07-31T10:40:15;3.63;;;1.88;;
80536;SDS011;69867;47.074;15.404;2023-07-31T10:42:47;4.68;;;1.95;;
80536;SDS011;69867;47.074;15.404;2023-07-31T10:45:13;5.45;;;1.80;;
80536;SDS011;69867;47.074;15.404;2023-07-31T10:47:42;4.95;;;1.80;;
80536;SDS011;69867;47.074;15.404;2023-07-31T10:52:37;5.18;;;2.08;;
80536;SDS011;69867;47.074;15.404;2023-07-31T10:55:15;3.40;;;1.80;;
80536;SDS011;69867;47.074;15.404;2023-07-31T10:57:50;3.47;;;1.80;;
80536;SDS011;69867;47.074;15.404;2023-07-31T11:02:57;3.72;;;1.90;;
80536;SDS011;69867;47.074;15.404;2023-07-31T11:08:23;4.05;;;1.55;;
80536;SDS011;69867;47.074;15.404;2023-07-31T11:10:51;5.28;;;2.00;;
80536;SDS011;69867;47.074;15.404;2023-07-31T11:13:42;3.15;;;1.65;;
80536;SDS011;69867;47.074;15.404;2023-07-31T11:16:10;3.33;;;1.45;;
80536;SDS011;69867;47.074;15.404;2023-07-31T11:18:38;4.13;;;1.95;;
80536;SDS011;69867;47.074;15.404;2023-07-31T11:21:04;3.20;;;1.83;;
80536;SDS011;69867;47.074;15.404;2023-07-31T11:23:30;4.25;;;1.63;;
80536;SDS011;69867;47.074;15.404;2023-07-31T11:25:58;3.47;;;1.60;;
80536;SDS011;69867;47.074;15.404;2023-07-31T11:28:25;4.18;;;1.73;;
80536;SDS011;69867;47.074;15.404;2023-07-31T11:30:50;3.55;;;1.70;;
80536;SDS011;69867;47.074;15.404;2023-07-31T11:33:16;3.28;;;1.67;;
80536;SDS011;69867;47.074;15.404;2023-07-31T11:38:09;3.95;;;1.60;;
80536;SDS011;69867;47.074;15.404;2023-07-31T11:40:44;3.58;;;1.60;;
80536;SDS011;69867;47.074;15.404;2023-07-31T11:43:09;4.50;;;1.60;;
80536;SDS011;69867;47.074;15.404;2023-07-31T11:45:35;4.78;;;2.03;;
80536;SDS011;69867;47.074;15.404;2023-07-31T11:48:01;3.70;;;1.75;;
80536;SDS011;69867;47.074;15.404;2023-07-31T11:50:26;3.78;;;1.60;;
80536;SDS011;69867;47.074;15.404;2023-07-31T11:52:57;4.07;;;1.90;;
80536;SDS011;69867;47.074;15.404;2023-07-31T11:55:25;4.43;;;1.60;;
80536;SDS011;69867;47.074;15.404;2023-07-31T11:57:51;4.65;;;1.92;;
80536;SDS011;69867;47.074;15.404;2023-07-31T12:00:18;4.00;;;1.65;;
80536;SDS011;69867;47.074;15.404;2023-07-31T12:02:44;3.70;;;1.75;;
80536;SDS011;69867;47.074;15.404;2023-07-31T12:05:11;3.03;;;1.70;;
80536;SDS011;69867;47.074;15.404;2023-07-31T12:07:44;3.17;;;1.60;;
80536;SDS011;69867;47.074;15.404;2023-07-31T12:10:10;4.78;;;1.95;;
80536;SDS011;69867;47.074;15.404;2023-07-31T12:12:35;3.50;;;1.85;;
80536;SDS011;69867;47.074;15.404;2023-07-31T12:15:00;3.10;;;1.52;;
80536;SDS011;69867;47.074;15.404;2023-07-31T12:17:26;3.88;;;1.80;;
80536;SDS011;69867;47.074;15.404;2023-07-31T12:19:51;3.78;;;1.60;;
80536;SDS011;69867;47.074;15.404;2023-07-31T12:22:17;3.90;;;2.08;;
80536;SDS011;69867;47.074;15.404;2023-07-31T12:24:42;3.70;;;1.60;;
80536;SDS011;69867;47.074;15.404;2023-07-31T12:27:10;3.30;;;1.77;;
80536;SDS011;69867;47.074;15.404;2023-07-31T12:29:36;4.22;;;1.65;;
80536;SDS011;69867;47.074;15.404;2023-07-31T12:32:01;4.88;;;1.90;;
80536;SDS011;69867;47.074;15.404;2023-07-31T12:34:27;3.15;;;1.60;;
80536;SDS011;69867;47.074;15.404;2023-07-31T12:36:53;3.33;;;1.67;;
80536;SDS011;69867;47.074;15.404;2023-07-31T12:39:19;3.33;;;1.83;;
80536;SDS011;69867;47.074;15.404;2023-07-31T12:41:44;4.70;;;1.75;;
80536;SDS011;69867;47.074;15.404;2023-07-31T12:44:09;4.28;;;1.83;;
80536;SDS011;69867;47.074;15.404;2023-07-31T12:46:35;3.28;;;1.73;;
80536;SDS011;69867;47.074;15.404;2023-07-31T12:49:00;2.80;;;1.50;;
80536;SDS011;69867;47.074;15.404;2023-07-31T12:51:25;3.40;;;1.80;;
80536;SDS011;69867;47.074;15.404;2023-07-31T12:53:51;4.00;;;1.75;;
80536;SDS011;69867;47.074;15.404;2023-07-31T12:56:16;3.70;;;1.88;;
80536;SDS011;69867;47.074;15.404;2023-07-31T12:58:41;5.72;;;1.90;;
80536;SDS011;69867;47.074;15.404;2023-07-31T13:01:07;3.55;;;1.83;;
80536;SDS011;69867;47.074;15.404;2023-07-31T13:03:32;4.22;;;2.10;;
80536;SDS011;69867;47.074;15.404;2023-07-31T13:05:57;3.88;;;1.90;;
80536;SDS011;69867;47.074;15.404;2023-07-31T13:08:23;3.67;;;1.77;;
80536;SDS011;69867;47.074;15.404;2023-07-31T13:10:48;3.25;;;1.70;;
80536;SDS011;69867;47.074;15.404;2023-07-31T13:13:13;3.03;;;1.63;;
80536;SDS011;69867;47.074;15.404;2023-07-31T13:15:39;3.38;;;1.60;;
80536;SDS011;69867;47.074;15.404;2023-07-31T13:18:04;3.40;;;1.90;;
80536;SDS011;69867;47.074;15.404;2023-07-31T13:20:29;3.53;;;1.80;;
80536;SDS011;69867;47.074;15.404;2023-07-31T13:22:55;5.65;;;2.30;;
80536;SDS011;69867;47.074;15.404;2023-07-31T13:25:20;3.97;;;2.13;;
80536;SDS011;69867;47.074;15.404;2023-07-31T13:27:45;3.42;;;2.13;;
80536;SDS011;69867;47.074;15.404;2023-07-31T13:30:11;3.33;;;1.70;;
80536;SDS011;69867;47.074;15.404;2023-07-31T13:32:36;3.83;;;1.85;;
80536;SDS011;69867;47.074;15.404;2023-07-31T13:35:02;3.13;;;1.58;;
80536;SDS011;69867;47.074;15.404;2023-07-31T13:37:27;4.30;;;1.98;;
80536;SDS011;69867;47.074;15.404;2023-07-31T13:39:52;3.70;;;2.00;;
80536;SDS011;69867;47.074;15.404;2023-07-31T13:42:18;5.05;;;1.92;;
80536;SDS011;69867;47.074;15.404;2023-07-31T13:44:43;6.38;;;2.05;;
80536;SDS011;69867;47.074;15.404;2023-07-31T13:47:09;5.47;;;2.33;;
80536;SDS011;69867;47.074;15.404;2023-07-31T13:49:34;4.30;;;2.28;;
80536;SDS011;69867;47.074;15.404;2023-07-31T13:52:00;3.40;;;1.52;;
80536;SDS011;69867;47.074;15.404;2023-07-31T13:54:26;4.20;;;1.52;;
80536;SDS011;69867;47.074;15.404;2023-07-31T13:56:51;4.85;;;1.60;;
80536;SDS011;69867;47.074;15.404;2023-07-31T13:59:17;6.22;;;1.95;;
80536;SDS011;69867;47.074;15.404;2023-07-31T14:01:43;4.47;;;2.00;;
80536;SDS011;69867;47.074;15.404;2023-07-31T14:04:09;4.07;;;1.80;;
80536;SDS011;69867;47.074;15.404;2023-07-31T14:06:35;3.42;;;1.98;;
80536;SDS011;69867;47.074;15.404;2023-07-31T14:09:01;3.92;;;1.95;;
80536;SDS011;69867;47.074;15.404;2023-07-31T14:11:26;4.45;;;2.20;;
80536;SDS011;69867;47.074;15.404;2023-07-31T14:13:52;3.90;;;1.90;;
80536;SDS011;69867;47.074;15.404;2023-07-31T14:16:18;4.32;;;2.20;;
80536;SDS011;69867;47.074;15.404;2023-07-31T14:18:43;4.43;;;1.70;;
80536;SDS011;69867;47.074;15.404;2023-07-31T14:21:08;4.35;;;1.73;;
80536;SDS011;69867;47.074;15.404;2023-07-31T14:23:34;4.03;;;1.80;;
80536;SDS011;69867;47.074;15.404;2023-07-31T14:25:59;3.45;;;1.80;;
80536;SDS011;69867;47.074;15.404;2023-07-31T14:28:24;4.22;;;2.25;;
80536;SDS011;69867;47.074;15.404;2023-07-31T14:30:50;6.57;;;2.92;;
80536;SDS011;69867;47.074;15.404;2023-07-31T14:33:15;4.65;;;2.53;;
80536;SDS011;69867;47.074;15.404;2023-07-31T14:35:40;4.45;;;2.03;;
80536;SDS011;69867;47.074;15.404;2023-07-31T14:38:06;4.72;;;2.15;;
80536;SDS011;69867;47.074;15.404;2023-07-31T14:40:31;4.55;;;2.38;;
80536;SDS011;69867;47.074;15.404;2023-07-31T14:42:56;4.15;;;1.90;;
80536;SDS011;69867;47.074;15.404;2023-07-31T14:45:22;4.85;;;2.08;;
80536;SDS011;69867;47.074;15.404;2023-07-31T14:47:47;5.03;;;2.58;;